createdAt,value
2022-11-27T00:01:45.193Z,81.73
2022-11-27T00:04:15.084Z,81.82
2022-11-27T00:06:46.515Z,81.75
2022-11-27T00:09:17.006Z,81.66
2022-11-27T00:11:45.945Z,81.48
2022-11-27T00:14:18.515Z,81.21
2022-11-27T00:16:48.041Z,81.29
2022-11-27T00:19:18.071Z,81.36
2022-11-27T00:21:47.869Z,81.68
2022-11-27T00:24:16.303Z,81.74
2022-11-27T00:26:46.591Z,81.53
2022-11-27T00:29:15.404Z,81.47
2022-11-27T00:31:44.299Z,81.68
2022-11-27T00:34:13.521Z,81.73
2022-11-27T00:36:46.583Z,81.97
2022-11-27T00:39:18.149Z,81.99
2022-11-27T00:41:47.158Z,81.94
2022-11-27T00:44:16.679Z,82.05
2022-11-27T00:46:46.064Z,82.07
2022-11-27T00:49:15.621Z,81.90
2022-11-27T00:51:44.191Z,81.81
2022-11-27T00:54:13.810Z,81.84
2022-11-27T00:56:42.233Z,81.80
2022-11-27T00:59:11.255Z,81.54
2022-11-27T01:01:43.516Z,80.86
2022-11-27T01:04:15.331Z,80.75
2022-11-27T01:06:44.493Z,80.73
2022-11-27T01:09:15.423Z,80.84
2022-11-27T01:11:44.140Z,80.48
2022-11-27T01:14:14.729Z,80.39
2022-11-27T01:16:43.649Z,80.07
2022-11-27T01:19:12.865Z,80.15
2022-11-27T01:21:42.144Z,80.04
2022-11-27T01:24:15.386Z,79.97
2022-11-27T01:26:44.364Z,80.20
2022-11-27T01:29:12.898Z,80.24
2022-11-27T01:31:44.046Z,80.20
2022-11-27T01:34:15.905Z,80.17
2022-11-27T01:36:45.311Z,80.16
2022-11-27T01:39:16.265Z,80.13
2022-11-27T01:41:45.458Z,79.93
2022-11-27T01:44:48.722Z,79.76
2022-11-27T01:47:26.546Z,79.86
2022-11-27T01:50:01.075Z,79.81
2022-11-27T01:52:32.566Z,79.64
2022-11-27T01:55:05.704Z,79.57
2022-11-27T01:57:40.756Z,79.66
2022-11-27T02:00:13.462Z,79.68
2022-11-27T02:02:44.235Z,79.89
2022-11-27T02:05:17.040Z,79.71
2022-11-27T02:07:46.344Z,79.80
2022-11-27T02:10:15.964Z,79.54
2022-11-27T02:12:52.855Z,79.61
2022-11-27T02:15:30.111Z,79.63
2022-11-27T02:18:06.285Z,79.67
2022-11-27T02:20:48.300Z,79.74
2022-11-27T02:23:58.192Z,79.64
2022-11-27T02:27:03.727Z,79.63
2022-11-27T02:29:34.247Z,79.50
2022-11-27T02:32:09.759Z,79.65
2022-11-27T02:34:48.629Z,79.60
2022-11-27T02:37:23.805Z,79.66
2022-11-27T02:40:01.553Z,79.60
2022-11-27T02:42:33.931Z,79.70
2022-11-27T02:45:09.364Z,79.82
2022-11-27T02:47:39.867Z,79.87
2022-11-27T02:50:14.254Z,79.92
2022-11-27T02:52:44.764Z,79.97
2022-11-27T02:55:20.391Z,79.96
2022-11-27T02:57:51.921Z,80.00
2022-11-27T03:00:21.048Z,79.99
2022-11-27T03:02:57.119Z,80.04
2022-11-27T03:05:30.020Z,79.97
2022-11-27T03:08:02.727Z,79.91
2022-11-27T03:10:41.419Z,79.80
2022-11-27T03:13:10.787Z,79.75
2022-11-27T03:15:45.854Z,79.83
2022-11-27T03:18:19.109Z,79.78
2022-11-27T03:20:57.051Z,79.85
2022-11-27T03:23:28.179Z,79.85
2022-11-27T03:25:59.155Z,79.81
2022-11-27T03:28:32.592Z,79.72
2022-11-27T03:31:03.173Z,79.94
2022-11-27T03:33:31.577Z,80.01
2022-11-27T03:35:59.775Z,79.89
2022-11-27T03:38:29.120Z,79.90
2022-11-27T03:41:09.132Z,79.90
2022-11-27T03:43:45.843Z,79.82
2022-11-27T03:46:31.395Z,79.87
2022-11-27T03:49:08.693Z,80.01
2022-11-27T03:51:43.310Z,79.86
2022-11-27T03:54:22.947Z,80.05
2022-11-27T03:57:01.879Z,80.06
2022-11-27T03:59:33.911Z,80.05
2022-11-27T04:02:02.313Z,80.08
2022-11-27T04:04:30.894Z,80.13
2022-11-27T04:06:59.352Z,79.97
2022-11-27T04:09:30.023Z,80.16
2022-11-27T04:11:58.322Z,79.99
2022-11-27T04:14:27.489Z,79.93
2022-11-27T04:16:55.819Z,79.95
2022-11-27T04:19:25.044Z,79.93
2022-11-27T04:21:53.795Z,80.02
2022-11-27T04:24:22.337Z,79.97
2022-11-27T04:26:50.712Z,79.82
2022-11-27T04:29:19.174Z,79.79
2022-11-27T04:31:47.546Z,79.65
2022-11-27T04:34:16.113Z,79.68
2022-11-27T04:36:45.606Z,79.73
2022-11-27T04:39:14.635Z,79.65
2022-11-27T04:41:43.000Z,79.60
2022-11-27T04:44:11.759Z,79.79
2022-11-27T04:46:41.083Z,79.73
2022-11-27T04:49:11.175Z,79.83
2022-11-27T04:51:39.606Z,79.73
2022-11-27T04:54:11.805Z,79.76
2022-11-27T04:56:40.790Z,79.68
2022-11-27T04:59:12.035Z,79.63
2022-11-27T05:01:40.944Z,79.67
2022-11-27T05:04:10.558Z,79.58
2022-11-27T05:06:39.003Z,79.69
2022-11-27T05:09:09.670Z,79.59
2022-11-27T05:11:39.676Z,79.54
2022-11-27T05:14:17.598Z,79.54
2022-11-27T05:16:48.652Z,79.50
2022-11-27T05:19:18.500Z,79.48
2022-11-27T05:21:47.853Z,79.46
2022-11-27T05:24:17.792Z,79.50
2022-11-27T05:26:46.192Z,79.38
2022-11-27T05:29:15.244Z,79.44
2022-11-27T05:31:44.588Z,79.28
2022-11-27T05:34:14.096Z,79.25
2022-11-27T05:36:44.882Z,79.34
2022-11-27T05:39:13.768Z,79.44
2022-11-27T05:41:43.439Z,79.49
2022-11-27T05:44:14.746Z,79.48
2022-11-27T05:46:43.618Z,79.54
2022-11-27T05:49:14.551Z,79.53
2022-11-27T05:51:49.169Z,79.39
2022-11-27T05:54:19.623Z,79.41
2022-11-27T05:56:47.855Z,79.40
2022-11-27T05:59:16.751Z,79.37
2022-11-27T06:01:45.728Z,79.45
2022-11-27T06:04:14.295Z,79.46
2022-11-27T06:06:43.142Z,79.45
2022-11-27T06:09:13.441Z,79.23
2022-11-27T06:11:43.886Z,79.32
2022-11-27T06:14:14.718Z,79.32
2022-11-27T06:16:43.086Z,79.29
2022-11-27T06:19:13.451Z,79.35
2022-11-27T06:21:42.720Z,79.26
2022-11-27T06:24:12.549Z,79.19
2022-11-27T06:26:44.784Z,79.21
2022-11-27T06:29:13.582Z,79.29
2022-11-27T06:31:43.933Z,79.37
2022-11-27T06:34:12.848Z,79.33
2022-11-27T06:36:44.195Z,79.34
2022-11-27T06:39:12.548Z,79.50
2022-11-27T06:41:44.622Z,79.52
2022-11-27T06:44:13.097Z,79.42
2022-11-27T06:46:41.607Z,79.51
2022-11-27T06:49:10.523Z,79.63
2022-11-27T06:51:42.279Z,79.82
2022-11-27T06:54:11.350Z,79.85
2022-11-27T06:56:43.017Z,79.74
2022-11-27T06:59:14.625Z,79.75
2022-11-27T07:01:44.221Z,79.87
2022-11-27T07:04:15.423Z,79.89
2022-11-27T07:06:44.299Z,79.94
2022-11-27T07:09:12.580Z,79.99
2022-11-27T07:11:40.900Z,80.04
2022-11-27T07:14:10.380Z,80.05
2022-11-27T07:16:38.803Z,80.02
2022-11-27T07:19:08.077Z,80.20
2022-11-27T07:21:37.627Z,80.28
2022-11-27T07:24:07.420Z,80.44
2022-11-27T07:26:35.694Z,80.39
2022-11-27T07:29:03.904Z,80.67
2022-11-27T07:31:32.286Z,80.25
2022-11-27T07:34:00.587Z,80.33
2022-11-27T07:36:30.579Z,80.55
2022-11-27T07:38:59.379Z,80.54
2022-11-27T07:41:33.657Z,80.60
2022-11-27T07:44:02.795Z,80.94
2022-11-27T07:46:31.267Z,80.81
2022-11-27T07:49:00.092Z,80.81
2022-11-27T07:51:28.391Z,80.92
2022-11-27T07:53:57.221Z,80.81
2022-11-27T07:56:26.771Z,80.74
2022-11-27T07:58:55.745Z,80.88
2022-11-27T08:01:24.937Z,80.63
2022-11-27T08:03:53.270Z,80.69
2022-11-27T08:06:23.409Z,80.80
2022-11-27T08:08:52.543Z,80.96
2022-11-27T08:11:23.257Z,81.02
2022-11-27T08:13:56.544Z,81.15
2022-11-27T08:16:25.465Z,81.35
2022-11-27T08:18:54.084Z,81.53
2022-11-27T08:21:22.584Z,81.68
2022-11-27T08:23:51.419Z,81.39
2022-11-27T08:26:20.285Z,81.39
2022-11-27T08:28:51.517Z,81.50
2022-11-27T08:31:20.870Z,81.80
2022-11-27T08:33:49.605Z,81.81
2022-11-27T08:36:18.569Z,81.43
2022-11-27T08:38:47.090Z,81.60
2022-11-27T08:41:16.035Z,81.87
2022-11-27T08:43:44.613Z,82.14
2022-11-27T08:46:13.222Z,82.01
2022-11-27T08:48:41.665Z,81.76
2022-11-27T08:51:12.367Z,81.59
2022-11-27T08:53:41.041Z,81.72
2022-11-27T08:56:14.320Z,81.67
2022-11-27T08:58:43.292Z,81.13
2022-11-27T09:01:14.288Z,81.26
2022-11-27T09:03:42.811Z,81.03
2022-11-27T09:06:13.104Z,81.07
2022-11-27T09:08:43.120Z,80.82
2022-11-27T09:11:12.836Z,80.81
2022-11-27T09:13:42.097Z,80.58
2022-11-27T09:16:12.197Z,80.78
2022-11-27T09:18:41.137Z,80.89
2022-11-27T09:21:11.278Z,81.15
2022-11-27T09:23:40.084Z,81.10
2022-11-27T09:26:10.578Z,81.18
2022-11-27T09:28:40.379Z,80.84
2022-11-27T09:31:11.800Z,80.97
2022-11-27T09:33:41.415Z,80.85
2022-11-27T09:36:12.091Z,80.28
2022-11-27T09:38:40.490Z,80.35
2022-11-27T09:41:35.042Z,80.64
2022-11-27T09:44:16.446Z,80.49
2022-11-27T09:46:45.239Z,80.41
2022-11-27T09:49:18.091Z,80.30
2022-11-27T09:51:53.183Z,80.29
2022-11-27T09:54:25.475Z,80.42
2022-11-27T09:56:55.992Z,80.40
2022-11-27T09:59:29.755Z,80.42
2022-11-27T10:01:58.342Z,80.29
2022-11-27T10:04:30.432Z,80.23
2022-11-27T10:07:20.221Z,80.20
2022-11-27T10:10:04.908Z,79.77
2022-11-27T10:12:48.004Z,80.00
2022-11-27T10:15:22.540Z,79.79
2022-11-27T10:18:02.585Z,79.07
2022-11-27T10:20:39.088Z,79.24
2022-11-27T10:23:15.655Z,79.08
2022-11-27T10:25:48.064Z,79.00
2022-11-27T10:28:27.943Z,78.59
2022-11-27T10:31:00.471Z,78.81
2022-11-27T10:33:38.036Z,78.33
2022-11-27T10:36:13.685Z,78.56
2022-11-27T10:38:43.552Z,78.27
2022-11-27T10:41:47.753Z,78.21
2022-11-27T10:44:21.934Z,78.16
2022-11-27T10:46:52.844Z,77.40
2022-11-27T10:49:21.472Z,77.10
2022-11-27T10:51:50.064Z,76.94
2022-11-27T10:54:25.314Z,77.10
2022-11-27T10:57:11.787Z,77.43
2022-11-27T10:59:48.269Z,77.43
2022-11-27T11:02:29.660Z,77.22
2022-11-27T11:05:32.549Z,77.02
2022-11-27T11:07:59.921Z,77.02
2022-11-27T11:10:32.107Z,76.98
2022-11-27T11:13:22.622Z,76.94
2022-11-27T11:15:54.859Z,76.87
2022-11-27T11:18:26.298Z,77.01
2022-11-27T11:20:57.763Z,76.81
2022-11-27T11:23:30.828Z,76.30
2022-11-27T11:34:41.270Z,76.25
2022-11-27T11:37:56.865Z,76.55
2022-11-27T11:41:17.419Z,76.07
2022-11-27T11:44:01.671Z,75.98
2022-11-27T11:46:33.096Z,76.00
2022-11-27T11:49:06.456Z,76.42
2022-11-27T11:52:02.449Z,76.49
2022-11-27T11:54:51.791Z,76.44
2022-11-27T11:57:57.587Z,76.28
2022-11-27T12:00:48.677Z,76.28
2022-11-27T12:03:35.604Z,76.06
2022-11-27T12:06:23.598Z,75.76
2022-11-27T12:09:10.734Z,75.94
2022-11-27T12:11:48.729Z,76.07
2022-11-27T12:14:28.087Z,76.21
2022-11-27T12:17:08.807Z,76.23
2022-11-27T12:19:53.427Z,76.43
2022-11-27T12:22:37.065Z,76.10
2022-11-27T12:25:23.079Z,76.26
2022-11-27T12:31:38.606Z,76.25
2022-11-27T12:34:20.178Z,76.09
2022-11-27T12:37:04.821Z,75.69
2022-11-27T12:39:44.691Z,76.02
2022-11-27T12:42:22.354Z,76.31
2022-11-27T12:44:58.168Z,76.19
2022-11-27T12:47:38.772Z,76.23
2022-11-27T12:50:19.836Z,76.25
2022-11-27T12:53:04.210Z,76.23
2022-11-27T12:55:35.503Z,76.36
2022-11-27T12:58:12.700Z,76.24
2022-11-27T13:00:43.420Z,75.98
2022-11-27T13:03:21.442Z,76.11
2022-11-27T13:05:53.906Z,76.11
2022-11-27T13:08:30.628Z,76.00
2022-11-27T13:11:04.759Z,76.03
2022-11-27T13:13:40.188Z,75.45
2022-11-27T13:16:18.061Z,75.58
2022-11-27T13:18:54.617Z,75.70
2022-11-27T13:21:52.133Z,75.57
2022-11-27T13:24:25.644Z,75.08
2022-11-27T13:27:06.160Z,75.28
2022-11-27T13:29:43.024Z,75.60
2022-11-27T13:32:21.806Z,75.59
2022-11-27T13:35:01.976Z,75.59
2022-11-27T13:37:37.551Z,75.76
2022-11-27T13:40:21.249Z,75.67
2022-11-27T13:42:55.096Z,75.59
2022-11-27T13:45:26.353Z,75.57
2022-11-27T13:50:55.270Z,75.72
2022-11-27T13:53:33.325Z,75.95
2022-11-27T13:56:03.697Z,76.28
2022-11-27T13:59:00.247Z,76.06
2022-11-27T14:01:29.215Z,75.84
2022-11-27T14:04:08.830Z,75.89
2022-11-27T14:06:42.211Z,75.89
2022-11-27T14:09:11.963Z,75.72
2022-11-27T14:11:45.195Z,75.73
2022-11-27T14:14:20.251Z,75.70
2022-11-27T14:16:57.348Z,75.65
2022-11-27T14:19:34.182Z,75.75
2022-11-27T14:22:15.842Z,75.50
2022-11-27T14:24:53.317Z,75.66
2022-11-27T14:27:24.231Z,75.53
2022-11-27T14:29:55.302Z,75.62
2022-11-27T14:32:34.181Z,75.58
2022-11-27T14:35:02.672Z,75.82
2022-11-27T14:37:31.454Z,75.82
2022-11-27T14:40:00.455Z,75.98
2022-11-27T14:42:32.037Z,75.89
2022-11-27T14:45:12.264Z,76.00
2022-11-27T14:47:47.657Z,75.93
2022-11-27T14:50:17.491Z,76.18
2022-11-27T14:52:52.959Z,76.03
2022-11-27T14:55:23.222Z,76.17
2022-11-27T14:57:52.284Z,76.07
2022-11-27T15:00:26.827Z,76.02
2022-11-27T15:03:06.928Z,76.04
2022-11-27T15:05:39.776Z,76.02
2022-11-27T15:08:10.817Z,76.20
2022-11-27T15:10:41.231Z,76.14
2022-11-27T15:13:23.400Z,76.26
2022-11-27T15:16:01.448Z,76.37
2022-11-27T15:18:32.901Z,76.30
2022-11-27T15:21:09.009Z,76.22
2022-11-27T15:23:38.079Z,76.19
2022-11-27T15:26:16.060Z,76.29
2022-11-27T15:28:52.885Z,76.17
2022-11-27T15:31:32.348Z,76.42
2022-11-27T15:34:04.259Z,76.20
2022-11-27T15:36:38.722Z,76.61
2022-11-27T15:39:21.225Z,77.58
2022-11-27T15:42:43.531Z,77.91
2022-11-27T15:45:20.541Z,77.72
2022-11-27T15:49:13.622Z,77.64
2022-11-27T15:51:45.309Z,77.67
2022-11-27T15:54:19.510Z,77.45
2022-11-27T15:57:39.414Z,77.50
2022-11-27T16:00:18.643Z,77.31
2022-11-27T16:06:12.665Z,76.60
2022-11-27T16:08:41.942Z,76.81
2022-11-27T16:11:19.367Z,76.52
2022-11-27T16:13:49.109Z,76.74
2022-11-27T16:16:19.416Z,77.21
2022-11-27T16:18:49.699Z,77.21
2022-11-27T16:21:24.304Z,77.22
2022-11-27T16:24:01.869Z,77.04
2022-11-27T16:26:31.951Z,76.89
2022-11-27T16:29:02.809Z,76.87
2022-11-27T16:31:32.096Z,77.04
2022-11-27T16:34:01.618Z,77.21
2022-11-27T16:36:30.632Z,77.33
2022-11-27T16:38:59.815Z,77.56
2022-11-27T16:41:37.435Z,77.43
2022-11-27T16:44:13.520Z,77.13
2022-11-27T16:46:45.225Z,76.86
2022-11-27T16:49:15.083Z,76.77
2022-11-27T16:51:44.347Z,76.57
2022-11-27T16:54:15.113Z,76.31
2022-11-27T16:56:46.440Z,76.34
2022-11-27T16:59:16.899Z,76.11
2022-11-27T17:04:43.174Z,76.57
2022-11-27T17:07:13.796Z,77.22
2022-11-27T17:09:42.738Z,77.84
2022-11-27T17:12:12.377Z,78.45
2022-11-27T17:14:46.601Z,78.58
2022-11-27T17:17:41.147Z,79.64
2022-11-27T17:20:10.980Z,79.49
2022-11-27T17:22:41.094Z,78.96
2022-11-27T17:25:10.781Z,78.48
2022-11-27T17:27:41.124Z,78.34
2022-11-27T17:30:11.373Z,78.37
2022-11-27T17:33:10.253Z,78.24
2022-11-27T17:35:40.341Z,78.01
2022-11-27T17:38:12.883Z,77.66
2022-11-27T17:40:41.901Z,77.29
2022-11-27T17:43:38.373Z,77.59
2022-11-27T17:46:09.338Z,77.44
2022-11-27T17:48:38.281Z,77.35
2022-11-27T17:51:07.996Z,77.39
2022-11-27T17:53:39.717Z,77.42
2022-11-27T17:56:12.686Z,77.11
2022-11-27T17:58:43.621Z,77.27
2022-11-27T18:01:17.847Z,77.29
2022-11-27T18:03:47.283Z,77.05
2022-11-27T18:06:18.069Z,76.92
2022-11-27T18:08:48.413Z,77.13
2022-11-27T18:11:18.941Z,77.02
2022-11-27T18:13:48.421Z,76.77
2022-11-27T18:16:21.628Z,76.87
2022-11-27T18:18:51.657Z,76.90
2022-11-27T18:21:23.784Z,76.63
2022-11-27T18:24:21.970Z,76.58
2022-11-27T18:27:07.340Z,76.64
2022-11-27T18:29:31.866Z,76.63
2022-11-27T18:32:02.332Z,76.51
2022-11-27T18:34:31.141Z,76.53
2022-11-27T18:37:01.307Z,76.58
2022-11-27T18:39:30.707Z,76.66
2022-11-27T18:41:59.585Z,76.58
2022-11-27T18:44:29.346Z,76.49
2022-11-27T18:47:07.217Z,76.27
2022-11-27T18:49:42.323Z,76.17
2022-11-27T18:52:39.265Z,76.26
2022-11-27T18:55:35.427Z,76.31
2022-11-27T18:58:53.609Z,76.35
2022-11-27T19:01:26.465Z,76.28
2022-11-27T19:04:00.315Z,75.86
2022-11-27T19:06:31.380Z,75.99
2022-11-27T19:09:00.435Z,75.98
2022-11-27T19:11:30.410Z,75.87
2022-11-27T19:14:00.780Z,75.66
2022-11-27T19:16:32.644Z,75.84
2022-11-27T19:19:04.016Z,75.83
2022-11-27T19:21:33.752Z,75.87
2022-11-27T19:24:04.264Z,75.95
2022-11-27T19:26:36.962Z,75.93
2022-11-27T19:29:09.922Z,75.86
2022-11-27T19:31:40.406Z,75.62
2022-11-27T19:40:00.264Z,75.64
2022-11-27T19:42:28.923Z,75.82
2022-11-27T19:44:57.805Z,75.92
2022-11-27T19:47:27.320Z,75.92
2022-11-27T19:50:02.673Z,75.92
2022-11-27T19:52:59.299Z,75.67
2022-11-27T19:55:53.510Z,75.66
2022-11-27T19:58:46.690Z,75.67
2022-11-27T20:01:18.440Z,75.47
2022-11-27T20:03:49.476Z,75.41
2022-11-27T20:06:43.185Z,75.30
2022-11-27T20:09:14.398Z,75.41
2022-11-27T20:11:43.046Z,75.34
2022-11-27T20:14:13.311Z,75.18
2022-11-27T20:16:48.250Z,75.24
2022-11-27T20:22:19.341Z,75.00
2022-11-27T20:25:17.289Z,75.01
2022-11-27T20:27:37.356Z,74.86
2022-11-27T20:30:08.321Z,74.69
2022-11-27T20:32:36.851Z,74.70
2022-11-27T20:35:06.280Z,74.70
2022-11-27T20:37:35.091Z,74.61
2022-11-27T20:40:04.721Z,74.54
2022-11-27T20:42:33.131Z,74.54
2022-11-27T20:45:04.572Z,74.60
2022-11-27T20:47:33.971Z,74.45
2022-11-27T20:50:02.434Z,74.21
2022-11-27T20:52:31.006Z,74.11
2022-11-27T20:54:59.681Z,73.94
2022-11-27T20:57:28.079Z,73.69
2022-11-27T20:59:56.406Z,73.76
2022-11-27T21:02:24.843Z,73.92
2022-11-27T21:04:53.725Z,74.03
2022-11-27T21:07:22.412Z,73.82
2022-11-27T21:09:51.138Z,73.73
2022-11-27T21:12:19.903Z,73.58
2022-11-27T21:14:48.360Z,73.62
2022-11-27T21:17:16.904Z,73.76
2022-11-27T21:19:45.979Z,73.69
2022-11-27T21:22:14.668Z,73.77
2022-11-27T21:24:44.340Z,73.75
2022-11-27T21:27:15.992Z,73.69
2022-11-27T21:29:44.637Z,73.68
2022-11-27T21:32:13.071Z,73.56
2022-11-27T21:34:41.882Z,73.64
2022-11-27T21:37:10.512Z,73.66
2022-11-27T21:39:40.484Z,73.56
2022-11-27T21:42:09.270Z,73.39
2022-11-27T21:44:40.849Z,73.39
2022-11-27T21:47:11.384Z,73.08
2022-11-27T21:49:40.825Z,73.19
2022-11-27T21:52:10.121Z,73.15
2022-11-27T21:54:38.936Z,73.34
2022-11-27T21:57:09.390Z,73.46
2022-11-27T21:59:38.228Z,73.45
2022-11-27T22:02:06.889Z,73.14
2022-11-27T22:04:35.375Z,73.28
2022-11-27T22:07:03.743Z,73.13
2022-11-27T22:09:32.921Z,72.86
2022-11-27T22:12:01.255Z,73.06
2022-11-27T22:14:29.986Z,73.01
2022-11-27T22:16:58.725Z,72.94
2022-11-27T22:19:27.699Z,72.83
2022-11-27T22:21:56.445Z,72.61
2022-11-27T22:24:25.611Z,72.69
2022-11-27T22:26:53.983Z,72.40
2022-11-27T22:29:22.659Z,72.45
2022-11-27T22:31:52.871Z,72.13
2022-11-27T22:34:21.351Z,72.13
2022-11-27T22:36:49.882Z,71.92
2022-11-27T22:39:18.214Z,71.74
2022-11-27T22:41:47.499Z,71.51
2022-11-27T22:44:18.016Z,71.23
2022-11-27T22:46:47.577Z,70.92
2022-11-27T22:49:18.175Z,70.92
2022-11-27T22:51:46.913Z,70.74
2022-11-27T22:54:17.056Z,70.66
2022-11-27T22:56:46.376Z,70.50
2022-11-27T22:59:32.855Z,70.82
2022-11-27T23:02:04.529Z,70.80
2022-11-27T23:04:33.832Z,70.58
2022-11-27T23:07:02.215Z,70.31
2022-11-27T23:09:31.240Z,70.10
2022-11-27T23:11:59.771Z,70.13
2022-11-27T23:14:28.300Z,70.08
2022-11-27T23:16:57.207Z,69.94
2022-11-27T23:19:29.719Z,69.88
2022-11-27T23:21:58.529Z,69.68
2022-11-27T23:24:27.201Z,69.46
2022-11-27T23:26:56.205Z,69.52
2022-11-27T23:29:24.922Z,69.80
2022-11-27T23:31:53.773Z,70.08
2022-11-27T23:34:22.168Z,70.40
2022-11-27T23:36:50.575Z,70.41
2022-11-27T23:39:21.382Z,70.33
2022-11-27T23:41:49.675Z,70.00
2022-11-27T23:44:18.045Z,70.42
2022-11-27T23:46:47.699Z,70.01
2022-11-27T23:49:18.224Z,69.80
2022-11-27T23:51:47.495Z,69.51
2022-11-27T23:54:15.836Z,69.47
2022-11-27T23:56:44.154Z,69.47
2022-11-27T23:59:12.898Z,69.50
